createdAt,value
2019-02-09T00:02:51.240Z,2.72
2019-02-09T00:07:59.294Z,2.49
2019-02-09T00:13:07.861Z,2.62
2019-02-09T00:18:16.025Z,2.64
2019-02-09T00:23:24.636Z,3.11
2019-02-09T00:28:32.750Z,3.15
2019-02-09T00:33:40.829Z,2.98
2019-02-09T00:38:48.911Z,3.02
2019-02-09T00:43:57.044Z,3.03
2019-02-09T00:49:05.138Z,2.72
2019-02-09T00:54:13.229Z,2.97
2019-02-09T00:59:21.301Z,3.07
2019-02-09T01:04:29.375Z,3.51
2019-02-09T01:09:37.426Z,3.36
2019-02-09T01:14:45.526Z,3.29
2019-02-09T01:19:53.601Z,3.28
2019-02-09T01:25:01.641Z,3.28
2019-02-09T01:30:09.761Z,3.32
2019-02-09T01:35:17.822Z,3.15
2019-02-09T01:40:25.802Z,3.31
2019-02-09T01:45:33.760Z,3.17
2019-02-09T01:50:41.818Z,3.42
2019-02-09T01:55:49.995Z,3.24
2019-02-09T02:00:58.041Z,3.32
2019-02-09T02:06:06.149Z,3.41
2019-02-09T02:11:14.149Z,3.42
2019-02-09T02:16:22.107Z,3.64
2019-02-09T02:21:30.265Z,3.55
2019-02-09T02:26:38.393Z,3.75
2019-02-09T02:31:46.508Z,3.61
2019-02-09T02:36:54.608Z,3.48
2019-02-09T02:42:02.660Z,3.74
2019-02-09T02:47:10.781Z,3.61
2019-02-09T02:52:18.730Z,3.57
2019-02-09T02:57:26.725Z,3.85
2019-02-09T03:02:34.660Z,3.51
2019-02-09T03:07:42.753Z,3.30
2019-02-09T03:12:50.857Z,3.28
2019-02-09T03:17:58.808Z,3.34
2019-02-09T03:23:06.840Z,3.24
2019-02-09T03:28:14.786Z,3.38
2019-02-09T03:33:22.757Z,3.44
2019-02-09T03:38:30.705Z,3.35
2019-02-09T03:43:38.702Z,3.24
2019-02-09T03:48:46.687Z,3.28
2019-02-09T03:53:54.683Z,3.40
2019-02-09T03:59:02.693Z,3.31
2019-02-09T04:04:10.692Z,3.55
2019-02-09T04:09:18.631Z,3.55
2019-02-09T04:14:26.577Z,3.05
2019-02-09T04:19:34.530Z,3.21
2019-02-09T04:24:42.440Z,3.24
2019-02-09T04:29:50.483Z,3.67
2019-02-09T04:34:58.589Z,3.32
2019-02-09T04:40:06.653Z,3.16
2019-02-09T04:45:14.872Z,3.67
2019-02-09T04:50:22.902Z,3.78
2019-02-09T04:55:31.441Z,3.46
2019-02-09T05:00:39.564Z,3.81
2019-02-09T05:05:47.701Z,3.78
2019-02-09T05:10:55.907Z,4.26
2019-02-09T05:16:04.036Z,3.88
2019-02-09T05:21:12.199Z,3.60
2019-02-09T05:26:20.354Z,3.86
2019-02-09T05:31:28.523Z,3.68
2019-02-09T05:36:36.692Z,3.62
2019-02-09T05:41:44.717Z,4.17
2019-02-09T05:46:52.916Z,4.33
2019-02-09T05:52:00.997Z,4.12
2019-02-09T05:57:09.275Z,5.01
2019-02-09T06:02:17.269Z,4.32
2019-02-09T06:07:25.507Z,5.92
2019-02-09T06:12:33.500Z,4.83
2019-02-09T06:17:41.743Z,4.89
2019-02-09T06:22:49.844Z,4.42
2019-02-09T06:27:58.016Z,4.16
2019-02-09T06:33:06.301Z,3.71
2019-02-09T06:38:14.420Z,3.79
2019-02-09T06:43:22.456Z,3.38
2019-02-09T06:48:30.597Z,3.04
2019-02-09T06:53:37.122Z,3.75
2019-02-09T06:58:45.188Z,5.56
2019-02-09T07:03:53.204Z,5.81
2019-02-09T07:09:01.350Z,7.44
2019-02-09T07:14:09.420Z,7.95
2019-02-09T07:19:17.787Z,7.78
2019-02-09T07:24:26.124Z,7.01
2019-02-09T07:29:34.709Z,6.87
2019-02-09T07:34:43.047Z,6.32
2019-02-09T07:39:51.451Z,6.23
2019-02-09T07:44:59.594Z,5.76
2019-02-09T07:50:08.104Z,5.23
2019-02-09T07:55:16.381Z,4.64
2019-02-09T08:00:24.887Z,4.12
2019-02-09T08:05:33.129Z,4.13
2019-02-09T08:10:41.445Z,3.58
2019-02-09T08:15:49.922Z,3.48
2019-02-09T08:20:58.149Z,3.35
2019-02-09T08:26:06.572Z,2.92
2019-02-09T08:31:14.978Z,2.97
2019-02-09T08:36:23.171Z,2.93
2019-02-09T08:41:31.328Z,2.78
2019-02-09T08:46:39.662Z,2.62
2019-02-09T08:51:47.897Z,2.54
2019-02-09T08:56:55.973Z,2.61
2019-02-09T09:02:04.181Z,2.94
2019-02-09T09:07:12.260Z,3.06
2019-02-09T09:12:20.389Z,2.98
2019-02-09T09:17:28.510Z,3.68
2019-02-09T09:22:36.682Z,2.92
2019-02-09T09:27:44.821Z,2.98
2019-02-09T09:32:53.660Z,4.60
2019-02-09T09:38:01.769Z,2.68
2019-02-09T09:43:09.881Z,3.25
2019-02-09T09:48:18.056Z,2.88
2019-02-09T09:53:26.329Z,2.87
2019-02-09T09:58:34.566Z,2.83
2019-02-09T10:03:42.776Z,2.55
2019-02-09T10:08:49.594Z,2.81
2019-02-09T10:13:57.739Z,2.74
2019-02-09T10:19:05.923Z,2.88
2019-02-09T10:24:14.057Z,2.82
2019-02-09T10:29:22.065Z,3.07
2019-02-09T10:34:30.273Z,2.99
2019-02-09T10:39:38.485Z,3.02
2019-02-09T10:44:46.804Z,2.90
2019-02-09T10:49:54.861Z,3.48
2019-02-09T10:55:02.941Z,2.77
2019-02-09T11:00:10.996Z,2.88
2019-02-09T11:05:19.335Z,2.76
2019-02-09T11:10:27.593Z,2.70
2019-02-09T11:15:35.766Z,2.94
2019-02-09T11:20:42.277Z,3.03
2019-02-09T11:25:50.573Z,3.08
2019-02-09T11:30:58.955Z,3.11
2019-02-09T11:36:07.045Z,3.31
2019-02-09T11:41:14.986Z,3.33
2019-02-09T11:46:23.237Z,3.25
2019-02-09T11:51:31.397Z,3.27
2019-02-09T11:56:39.999Z,3.47
2019-02-09T12:01:48.161Z,3.44
2019-02-09T12:06:57.076Z,3.28
2019-02-09T12:12:05.339Z,3.43
2019-02-09T12:17:13.569Z,3.91
2019-02-09T12:22:21.813Z,3.65
2019-02-09T12:27:30.175Z,3.36
2019-02-09T12:32:38.150Z,3.43
2019-02-09T12:37:46.550Z,3.01
2019-02-09T12:42:54.595Z,3.07
2019-02-09T12:48:02.789Z,3.34
2019-02-09T12:53:09.418Z,3.24
2019-02-09T12:58:17.545Z,3.55
2019-02-09T13:03:30.957Z,3.09
2019-02-09T13:08:33.415Z,3.00
2019-02-09T13:13:41.872Z,2.95
2019-02-09T13:18:50.131Z,3.05
2019-02-09T13:23:58.224Z,3.06
2019-02-09T13:29:06.409Z,3.12
2019-02-09T13:34:14.885Z,2.83
2019-02-09T13:39:22.976Z,2.90
2019-02-09T13:44:31.148Z,2.86
2019-02-09T13:49:39.337Z,5.11
2019-02-09T13:54:47.623Z,6.40
2019-02-09T13:59:55.977Z,4.11
2019-02-09T14:05:04.060Z,5.23
2019-02-09T14:10:12.475Z,3.84
2019-02-09T14:15:20.613Z,3.49
2019-02-09T14:20:29.301Z,3.11
2019-02-09T14:25:37.974Z,2.73
2019-02-09T14:30:46.362Z,2.29
2019-02-09T14:35:54.404Z,2.04
2019-02-09T14:41:02.634Z,2.35
2019-02-09T14:46:10.826Z,3.17
2019-02-09T14:51:19.400Z,3.32
2019-02-09T14:56:27.457Z,3.47
2019-02-09T15:01:37.262Z,3.29
2019-02-09T15:06:45.477Z,3.36
2019-02-09T15:11:53.675Z,3.57
2019-02-09T15:17:05.571Z,4.20
2019-02-09T15:22:09.181Z,3.95
2019-02-09T15:27:17.336Z,4.57
2019-02-09T15:32:25.308Z,5.04
2019-02-09T15:37:33.750Z,4.15
2019-02-09T15:42:42.201Z,3.82
2019-02-09T15:47:50.252Z,4.30
2019-02-09T15:52:58.781Z,4.04
2019-02-09T15:58:06.861Z,4.04
2019-02-09T16:03:15.072Z,4.23
2019-02-09T16:08:23.656Z,3.79
2019-02-09T16:13:35.833Z,4.93
2019-02-09T16:18:34.067Z,4.38
2019-02-09T16:23:42.375Z,4.40
2019-02-09T16:28:50.424Z,4.63
2019-02-09T16:33:58.778Z,4.00
2019-02-09T16:39:07.116Z,4.49
2019-02-09T16:44:15.218Z,3.34
2019-02-09T16:49:24.072Z,3.34
2019-02-09T16:54:32.585Z,3.32
2019-02-09T16:59:41.909Z,3.24
2019-02-09T17:04:50.706Z,4.02
2019-02-09T17:09:59.342Z,4.13
2019-02-09T17:15:08.193Z,4.72
2019-02-09T17:20:15.999Z,4.66
2019-02-09T17:25:24.306Z,4.68
2019-02-09T17:30:32.529Z,5.32
2019-02-09T17:35:40.498Z,5.15
2019-02-09T17:40:48.594Z,4.61
2019-02-09T17:45:56.661Z,4.88
2019-02-09T17:51:05.093Z,4.41
2019-02-09T17:56:13.601Z,4.42
2019-02-09T18:01:21.835Z,5.76
2019-02-09T18:06:30.047Z,5.10
2019-02-09T18:11:41.019Z,4.73
2019-02-09T18:16:46.600Z,5.04
2019-02-09T18:21:55.021Z,5.82
2019-02-09T18:27:03.309Z,4.10
2019-02-09T18:32:11.566Z,4.10
2019-02-09T18:37:19.719Z,4.58
2019-02-09T18:42:27.857Z,4.69
2019-02-09T18:47:36.202Z,4.48
2019-02-09T18:52:44.312Z,4.59
2019-02-09T18:57:52.707Z,4.01
2019-02-09T19:03:00.887Z,4.14
2019-02-09T19:08:09.142Z,4.99
2019-02-09T19:13:18.685Z,5.06
2019-02-09T19:18:27.160Z,4.74
2019-02-09T19:23:36.006Z,5.60
2019-02-09T19:28:44.142Z,5.37
2019-02-09T19:33:54.380Z,5.68
2019-02-09T19:38:52.485Z,7.72
2019-02-09T19:44:00.509Z,7.71
2019-02-09T19:49:08.648Z,4.87
2019-02-09T19:54:16.604Z,5.56
2019-02-09T19:59:24.570Z,6.83
2019-02-09T20:04:32.840Z,4.72
2019-02-09T20:09:40.865Z,4.18
2019-02-09T20:14:48.833Z,4.39
2019-02-09T20:19:56.937Z,3.92
2019-02-09T20:25:05.067Z,4.34
2019-02-09T20:30:13.175Z,4.50
2019-02-09T20:35:27.562Z,4.35
2019-02-09T20:40:29.148Z,3.81
2019-02-09T20:45:37.121Z,4.37
2019-02-09T20:50:45.146Z,5.19
2019-02-09T20:55:53.273Z,4.24
2019-02-09T21:01:01.418Z,4.36
2019-02-09T21:06:09.387Z,3.95
2019-02-09T21:11:17.369Z,3.89
2019-02-09T21:16:25.328Z,4.05
2019-02-09T21:21:33.316Z,4.14
2019-02-09T21:26:41.322Z,3.93
2019-02-09T21:31:49.453Z,3.74
2019-02-09T21:36:57.554Z,4.59
2019-02-09T21:42:05.642Z,4.24
2019-02-09T21:47:13.618Z,4.48
2019-02-09T21:52:21.633Z,4.66
2019-02-09T21:57:29.728Z,4.19
2019-02-09T22:02:42.622Z,4.32
2019-02-09T22:07:45.589Z,4.40
2019-02-09T22:12:54.526Z,4.08
2019-02-09T22:18:02.407Z,4.51
2019-02-09T22:23:10.582Z,3.96
2019-02-09T22:28:18.676Z,4.00
2019-02-09T22:33:26.913Z,4.28
2019-02-09T22:38:35.063Z,4.01
2019-02-09T22:43:43.318Z,4.07
2019-02-09T22:48:51.381Z,4.54
2019-02-09T22:53:59.474Z,4.39
2019-02-09T22:59:07.877Z,3.74
2019-02-09T23:04:15.845Z,4.32
2019-02-09T23:09:24.682Z,4.27
2019-02-09T23:14:32.681Z,4.01
2019-02-09T23:19:40.744Z,4.09
2019-02-09T23:24:49.065Z,4.23
2019-02-09T23:29:57.139Z,4.39
2019-02-09T23:55:15.346Z,4.38
